createdAt,value
2018-02-16T00:02:18.765Z,13.00
2018-02-16T00:04:47.098Z,12.80
2018-02-16T00:07:15.366Z,12.17
2018-02-16T00:09:43.704Z,12.63
2018-02-16T00:12:12.005Z,13.77
2018-02-16T00:14:40.296Z,12.73
2018-02-16T00:17:08.580Z,12.33
2018-02-16T00:19:36.901Z,10.50
2018-02-16T00:22:05.446Z,12.52
2018-02-16T00:24:33.711Z,11.87
2018-02-16T00:27:02.151Z,12.83
2018-02-16T00:29:30.386Z,16.93
2018-02-16T00:31:58.694Z,12.57
2018-02-16T00:34:26.979Z,15.40
2018-02-16T00:36:55.313Z,10.47
2018-02-16T00:39:23.581Z,12.20
2018-02-16T00:41:51.900Z,14.40
2018-02-16T00:44:20.178Z,11.25
2018-02-16T00:46:48.515Z,10.67
2018-02-16T00:49:16.788Z,12.30
2018-02-16T00:51:45.108Z,10.45
2018-02-16T00:54:13.410Z,8.57
2018-02-16T00:56:41.679Z,8.70
2018-02-16T00:59:09.968Z,9.30
2018-02-16T01:01:38.241Z,7.87
2018-02-16T01:04:06.524Z,9.20
2018-02-16T01:06:34.823Z,11.52
2018-02-16T01:09:03.120Z,16.37
2018-02-16T01:11:31.418Z,11.18
2018-02-16T01:13:59.706Z,13.67
2018-02-16T01:16:28.000Z,15.77
2018-02-16T01:18:56.279Z,17.23
2018-02-16T01:21:24.603Z,15.17
2018-02-16T01:23:52.879Z,15.10
2018-02-16T01:26:21.171Z,15.20
2018-02-16T01:28:49.514Z,11.53
2018-02-16T01:31:17.805Z,14.73
2018-02-16T01:33:46.136Z,13.47
2018-02-16T01:36:14.416Z,15.33
2018-02-16T01:38:42.707Z,16.33
2018-02-16T01:41:11.011Z,14.65
2018-02-16T01:43:39.289Z,15.40
2018-02-16T01:46:07.612Z,17.17
2018-02-16T01:48:35.930Z,18.50
2018-02-16T01:51:04.243Z,15.60
2018-02-16T01:53:32.548Z,17.17
2018-02-16T01:56:00.825Z,15.47
2018-02-16T01:58:29.152Z,15.73
2018-02-16T02:00:57.460Z,17.90
2018-02-16T02:03:25.782Z,12.40
2018-02-16T02:05:54.065Z,8.70
2018-02-16T02:08:22.319Z,8.63
2018-02-16T02:10:50.616Z,8.13
2018-02-16T02:13:18.890Z,10.20
2018-02-16T02:15:47.187Z,10.60
2018-02-16T02:18:15.469Z,8.02
2018-02-16T02:20:43.759Z,10.50
2018-02-16T02:23:12.037Z,8.68
2018-02-16T02:25:40.334Z,9.97
2018-02-16T02:28:08.628Z,13.43
2018-02-16T02:30:36.931Z,10.43
2018-02-16T02:33:05.264Z,11.65
2018-02-16T02:35:33.547Z,13.20
2018-02-16T02:38:01.831Z,15.20
2018-02-16T02:40:30.100Z,13.23
2018-02-16T02:42:58.401Z,12.03
2018-02-16T02:45:26.664Z,12.73
2018-02-16T02:47:54.936Z,14.00
2018-02-16T02:50:23.251Z,8.70
2018-02-16T02:52:51.503Z,10.73
2018-02-16T02:55:19.830Z,13.70
2018-02-16T02:57:48.106Z,12.70
2018-02-16T03:00:16.396Z,11.57
2018-02-16T03:02:44.691Z,14.67
2018-02-16T03:05:13.020Z,13.17
2018-02-16T03:07:41.290Z,12.47
2018-02-16T03:10:09.590Z,14.50
2018-02-16T03:12:37.886Z,14.37
2018-02-16T03:15:06.175Z,12.80
2018-02-16T03:17:34.457Z,15.70
2018-02-16T03:20:02.728Z,12.43
2018-02-16T03:22:31.043Z,13.27
2018-02-16T03:24:59.307Z,14.20
2018-02-16T03:27:27.629Z,15.30
2018-02-16T03:29:55.905Z,16.40
2018-02-16T03:32:24.206Z,14.03
2018-02-16T03:34:52.487Z,15.70
2018-02-16T03:37:20.759Z,16.70
2018-02-16T03:39:49.077Z,18.53
2018-02-16T03:42:17.440Z,16.60
2018-02-16T03:44:45.770Z,13.10
2018-02-16T03:47:14.032Z,16.40
2018-02-16T03:49:42.340Z,16.37
2018-02-16T03:52:10.714Z,15.80
2018-02-16T03:54:39.005Z,17.27
2018-02-16T03:57:07.786Z,17.70
2018-02-16T03:59:36.058Z,15.57
2018-02-16T04:02:04.343Z,14.70
2018-02-16T04:04:32.668Z,11.70
2018-02-16T04:07:00.974Z,17.13
2018-02-16T04:09:29.261Z,13.00
2018-02-16T04:11:57.550Z,14.27
2018-02-16T04:14:25.820Z,11.03
2018-02-16T04:16:54.099Z,10.70
2018-02-16T04:19:22.372Z,7.60
2018-02-16T04:21:50.681Z,6.23
2018-02-16T04:24:18.928Z,9.05
2018-02-16T04:26:47.220Z,15.03
2018-02-16T04:29:15.481Z,6.10
2018-02-16T04:31:43.745Z,6.40
2018-02-16T04:34:12.034Z,5.87
2018-02-16T04:36:40.318Z,7.03
2018-02-16T04:39:08.603Z,5.87
2018-02-16T04:41:36.871Z,7.47
2018-02-16T04:44:05.842Z,5.85
2018-02-16T04:46:34.156Z,7.33
2018-02-16T04:49:02.469Z,5.85
2018-02-16T04:51:30.780Z,7.83
2018-02-16T04:53:59.055Z,12.67
2018-02-16T04:56:27.330Z,14.40
2018-02-16T04:58:55.596Z,7.90
2018-02-16T05:01:23.898Z,8.67
2018-02-16T05:03:52.218Z,6.70
2018-02-16T05:06:20.456Z,7.82
2018-02-16T05:08:48.715Z,8.50
2018-02-16T05:11:17.262Z,9.47
2018-02-16T05:13:45.533Z,9.50
2018-02-16T05:16:13.779Z,11.57
2018-02-16T05:18:42.074Z,10.45
2018-02-16T05:21:10.348Z,10.10
2018-02-16T05:23:38.681Z,9.00
2018-02-16T05:26:06.960Z,11.70
2018-02-16T05:28:35.295Z,12.63
2018-02-16T05:31:03.624Z,9.67
2018-02-16T05:33:31.899Z,10.27
2018-02-16T05:36:00.175Z,13.70
2018-02-16T05:38:28.467Z,12.05
2018-02-16T05:40:56.739Z,12.77
2018-02-16T05:43:25.068Z,13.70
2018-02-16T05:45:53.367Z,13.53
2018-02-16T05:48:21.645Z,14.40
2018-02-16T05:50:49.944Z,11.00
2018-02-16T05:53:18.197Z,10.70
2018-02-16T05:55:46.519Z,7.97
2018-02-16T05:58:14.764Z,11.77
2018-02-16T06:00:43.053Z,8.30
2018-02-16T06:03:11.310Z,7.17
2018-02-16T06:05:39.588Z,9.00
2018-02-16T06:08:07.955Z,7.73
2018-02-16T06:10:36.220Z,7.77
2018-02-16T06:13:04.507Z,12.40
2018-02-16T06:15:32.802Z,10.67
2018-02-16T06:18:01.139Z,8.37
2018-02-16T06:20:29.399Z,9.03
2018-02-16T06:22:57.680Z,6.57
2018-02-16T06:25:25.951Z,12.00
2018-02-16T06:27:54.257Z,7.70
2018-02-16T06:30:22.632Z,7.33
2018-02-16T06:32:50.915Z,9.03
2018-02-16T06:35:19.233Z,7.62
2018-02-16T06:37:47.524Z,10.30
2018-02-16T06:40:15.821Z,9.50
2018-02-16T06:42:44.124Z,7.83
2018-02-16T06:45:12.481Z,9.73
2018-02-16T06:47:40.752Z,7.60
2018-02-16T06:50:09.091Z,9.20
2018-02-16T06:52:37.355Z,9.37
2018-02-16T06:55:06.629Z,10.27
2018-02-16T06:57:34.936Z,9.57
2018-02-16T07:00:04.208Z,8.28
2018-02-16T07:02:32.504Z,9.00
2018-02-16T07:05:00.764Z,8.32
2018-02-16T07:07:29.153Z,11.00
2018-02-16T07:09:57.394Z,10.63
2018-02-16T07:12:25.691Z,10.90
2018-02-16T07:14:54.034Z,10.73
2018-02-16T07:17:22.520Z,10.85
2018-02-16T07:19:50.803Z,12.67
2018-02-16T07:22:19.114Z,19.17
2018-02-16T07:24:47.444Z,12.30
2018-02-16T07:27:15.768Z,14.25
2018-02-16T07:29:44.060Z,18.87
2018-02-16T07:32:12.409Z,17.90
2018-02-16T07:34:40.695Z,16.40
2018-02-16T07:37:08.988Z,20.23
2018-02-16T07:39:37.375Z,18.70
2018-02-16T07:42:05.661Z,24.47
2018-02-16T07:44:33.975Z,18.00
2018-02-16T07:47:02.266Z,26.40
2018-02-16T07:49:30.606Z,19.67
2018-02-16T07:51:58.895Z,23.70
2018-02-16T07:54:27.205Z,23.17
2018-02-16T07:56:55.483Z,22.83
2018-02-16T07:59:23.809Z,20.83
2018-02-16T08:01:52.064Z,20.25
2018-02-16T08:04:20.345Z,21.73
2018-02-16T08:06:48.698Z,21.80
2018-02-16T08:09:16.977Z,24.43
2018-02-16T08:11:45.313Z,27.83
2018-02-16T08:14:13.688Z,25.95
2018-02-16T08:16:41.992Z,19.27
2018-02-16T08:19:10.310Z,15.88
2018-02-16T08:21:38.620Z,13.03
2018-02-16T08:24:06.916Z,15.60
2018-02-16T08:26:35.201Z,14.23
2018-02-16T08:29:03.474Z,20.97
2018-02-16T08:31:31.787Z,14.90
2018-02-16T08:34:00.067Z,17.77
2018-02-16T08:36:29.347Z,20.03
2018-02-16T08:38:57.616Z,15.32
2018-02-16T08:41:26.016Z,17.53
2018-02-16T08:43:54.576Z,19.10
2018-02-16T08:46:22.851Z,21.20
2018-02-16T08:48:51.160Z,20.53
2018-02-16T08:51:19.507Z,23.73
2018-02-16T08:53:47.856Z,23.55
2018-02-16T08:56:16.374Z,18.58
2018-02-16T08:58:44.739Z,23.17
2018-02-16T09:01:13.330Z,24.70
2018-02-16T09:03:41.680Z,24.37
2018-02-16T09:06:09.969Z,29.15
2018-02-16T09:08:38.302Z,23.70
2018-02-16T09:11:06.630Z,20.60
2018-02-16T09:13:34.897Z,23.57
2018-02-16T09:16:03.179Z,21.30
2018-02-16T09:18:31.475Z,24.80
2018-02-16T09:20:59.808Z,25.63
2018-02-16T09:23:28.170Z,22.43
2018-02-16T09:25:56.505Z,20.23
2018-02-16T09:28:24.775Z,27.67
2018-02-16T09:30:53.064Z,27.13
2018-02-16T09:33:21.331Z,24.67
2018-02-16T09:35:55.630Z,22.70
2018-02-16T09:38:23.909Z,25.57
2018-02-16T09:40:52.230Z,26.00
2018-02-16T09:43:20.510Z,21.80
2018-02-16T09:45:48.884Z,27.53
2018-02-16T09:48:19.086Z,24.43
2018-02-16T09:50:47.360Z,22.50
2018-02-16T09:53:15.745Z,17.10
2018-02-16T09:55:44.012Z,24.20
2018-02-16T09:58:12.304Z,23.33
2018-02-16T10:00:41.079Z,19.53
2018-02-16T10:03:09.445Z,26.65
2018-02-16T10:05:37.734Z,25.33
2018-02-16T10:08:06.403Z,23.53
2018-02-16T10:10:34.700Z,20.57
2018-02-16T10:13:03.050Z,22.23
2018-02-16T10:15:31.715Z,21.43
2018-02-16T10:18:00.045Z,53.10
2018-02-16T10:20:28.314Z,23.40
2018-02-16T10:22:56.643Z,19.00
2018-02-16T10:25:25.057Z,20.40
2018-02-16T10:27:53.444Z,13.43
2018-02-16T10:30:22.978Z,17.77
2018-02-16T10:32:51.258Z,23.50
2018-02-16T10:35:19.575Z,16.93
2018-02-16T10:37:48.926Z,15.80
2018-02-16T10:40:17.211Z,17.73
2018-02-16T10:42:45.520Z,22.20
2018-02-16T10:45:14.493Z,18.52
2018-02-16T10:47:42.754Z,24.40
2018-02-16T10:50:12.119Z,16.60
2018-02-16T10:52:40.413Z,17.23
2018-02-16T10:55:08.881Z,15.57
2018-02-16T10:57:37.166Z,17.53
2018-02-16T11:00:05.539Z,19.40
2018-02-16T11:02:39.328Z,17.47
2018-02-16T11:05:12.741Z,17.27
2018-02-16T11:07:47.135Z,23.00
2018-02-16T11:10:15.420Z,25.12
2018-02-16T11:12:43.747Z,19.20
2018-02-16T11:15:12.092Z,23.40
2018-02-16T11:17:40.406Z,20.00
2018-02-16T11:20:09.397Z,23.80
2018-02-16T11:22:37.766Z,15.57
2018-02-16T11:25:06.109Z,23.80
2018-02-16T11:27:34.819Z,18.50
2018-02-16T11:30:03.086Z,21.23
2018-02-16T11:32:31.395Z,12.63
2018-02-16T11:34:59.735Z,15.93
2018-02-16T11:37:28.011Z,16.47
2018-02-16T11:39:56.391Z,13.87
2018-02-16T11:42:25.688Z,22.93
2018-02-16T11:44:54.068Z,11.73
2018-02-16T11:47:22.324Z,13.15
2018-02-16T11:49:50.918Z,19.98
2018-02-16T11:52:19.922Z,11.53
2018-02-16T11:54:48.250Z,19.70
2018-02-16T11:57:16.566Z,12.60
2018-02-16T11:59:44.880Z,13.33
2018-02-16T12:02:13.166Z,10.88
2018-02-16T12:04:41.560Z,13.10
2018-02-16T12:07:09.840Z,12.80
2018-02-16T12:09:38.157Z,12.43
2018-02-16T12:12:06.725Z,18.27
2018-02-16T12:14:36.223Z,14.40
2018-02-16T12:17:04.963Z,9.50
2018-02-16T12:19:33.228Z,10.90
2018-02-16T12:22:01.662Z,12.27
2018-02-16T12:24:29.974Z,14.80
2018-02-16T12:26:58.271Z,12.80
2018-02-16T12:29:26.618Z,17.33
2018-02-16T12:31:54.914Z,21.37
2018-02-16T12:34:23.399Z,11.27
2018-02-16T12:36:51.664Z,11.40
2018-02-16T12:39:20.020Z,21.40
2018-02-16T12:41:48.408Z,12.40
2018-02-16T12:44:16.697Z,12.80
2018-02-16T12:46:44.981Z,10.00
2018-02-16T12:49:13.312Z,10.57
2018-02-16T12:51:41.609Z,13.23
2018-02-16T12:54:10.025Z,12.90
2018-02-16T12:56:38.353Z,10.83
2018-02-16T12:59:07.687Z,11.83
2018-02-16T13:01:35.963Z,15.47
2018-02-16T13:04:04.245Z,29.17
2018-02-16T13:06:32.565Z,13.87
2018-02-16T13:09:00.905Z,20.03
2018-02-16T13:11:29.306Z,8.67
2018-02-16T13:13:57.895Z,11.40
2018-02-16T13:16:26.181Z,15.05
2018-02-16T13:18:54.603Z,12.00
2018-02-16T13:21:22.982Z,16.30
2018-02-16T13:23:51.387Z,13.80
2018-02-16T13:26:19.730Z,13.10
2018-02-16T13:28:48.032Z,14.47
2018-02-16T13:31:17.199Z,11.30
2018-02-16T13:33:45.483Z,13.77
2018-02-16T13:36:13.811Z,12.68
2018-02-16T13:38:42.087Z,12.87
2018-02-16T13:41:10.418Z,12.40
2018-02-16T13:43:38.691Z,9.00
2018-02-16T13:46:07.932Z,17.27
2018-02-16T13:48:36.251Z,8.80
2018-02-16T13:51:05.584Z,5.35
2018-02-16T13:53:33.933Z,6.47
2018-02-16T13:56:02.333Z,8.43
2018-02-16T13:58:30.689Z,8.53
2018-02-16T14:00:58.977Z,8.70
2018-02-16T14:03:27.340Z,5.97
2018-02-16T14:05:55.681Z,9.77
2018-02-16T14:08:24.016Z,6.43
2018-02-16T14:10:52.304Z,5.32
2018-02-16T14:13:20.656Z,8.87
2018-02-16T14:15:48.921Z,6.00
2018-02-16T14:18:17.241Z,16.08
2018-02-16T14:20:45.509Z,5.93
2018-02-16T14:23:13.818Z,3.50
2018-02-16T14:25:42.158Z,9.00
2018-02-16T14:28:10.483Z,8.00
2018-02-16T14:30:38.808Z,2.60
2018-02-16T14:33:07.069Z,9.18
2018-02-16T14:35:35.501Z,8.80
2018-02-16T14:38:03.778Z,7.30
2018-02-16T14:40:32.102Z,10.27
2018-02-16T14:43:00.406Z,5.00
2018-02-16T14:45:28.752Z,9.83
2018-02-16T14:47:57.086Z,4.70
2018-02-16T14:50:25.379Z,7.10
2018-02-16T14:52:53.693Z,7.47
2018-02-16T14:55:21.987Z,5.40
2018-02-16T14:57:51.323Z,3.90
2018-02-16T15:00:20.532Z,8.32
2018-02-16T15:02:48.851Z,5.03
2018-02-16T15:05:17.238Z,7.22
2018-02-16T15:07:45.556Z,7.77
2018-02-16T15:10:13.917Z,4.33
2018-02-16T15:12:42.668Z,4.83
2018-02-16T15:15:10.966Z,7.05
2018-02-16T15:17:39.284Z,6.40
2018-02-16T15:20:07.698Z,4.03
2018-02-16T15:22:35.962Z,7.40
2018-02-16T15:25:04.239Z,7.87
2018-02-16T15:27:32.546Z,6.70
2018-02-16T15:30:00.845Z,6.62
2018-02-16T15:32:29.122Z,12.53
2018-02-16T15:34:57.476Z,8.70
2018-02-16T15:37:25.746Z,3.67
2018-02-16T15:39:54.115Z,2.47
2018-02-16T15:42:22.476Z,5.15
2018-02-16T15:44:51.500Z,3.35
2018-02-16T15:47:19.861Z,5.53
2018-02-16T15:49:48.239Z,8.95
2018-02-16T15:52:16.579Z,4.50
2018-02-16T15:54:44.899Z,7.33
2018-02-16T15:57:13.233Z,4.90
2018-02-16T15:59:41.638Z,8.50
2018-02-16T16:02:10.066Z,3.97
2018-02-16T16:04:38.599Z,5.37
2018-02-16T16:07:06.900Z,5.70
2018-02-16T16:09:35.195Z,5.30
2018-02-16T16:12:04.577Z,8.88
2018-02-16T16:14:32.944Z,13.13
2018-02-16T16:17:01.230Z,12.13
2018-02-16T16:19:29.691Z,6.90
2018-02-16T16:21:57.957Z,13.00
2018-02-16T16:24:26.466Z,8.27
2018-02-16T16:26:54.894Z,6.60
2018-02-16T16:29:24.058Z,3.67
2018-02-16T16:31:52.472Z,5.23
2018-02-16T16:34:20.730Z,3.25
2018-02-16T16:36:49.069Z,3.80
2018-02-16T16:39:17.379Z,5.53
2018-02-16T16:41:45.713Z,8.43
2018-02-16T16:44:13.991Z,7.13
2018-02-16T16:46:42.309Z,4.63
2018-02-16T16:49:10.685Z,5.30
2018-02-16T16:51:39.158Z,5.20
2018-02-16T16:54:07.450Z,4.00
2018-02-16T16:56:35.794Z,5.30
2018-02-16T16:59:05.003Z,3.60
2018-02-16T17:01:33.564Z,4.73
2018-02-16T17:04:01.847Z,4.83
2018-02-16T17:06:30.128Z,4.63
2018-02-16T17:08:59.682Z,4.47
2018-02-16T17:11:28.000Z,6.60
2018-02-16T17:13:56.374Z,8.20
2018-02-16T17:16:24.655Z,8.33
2018-02-16T17:18:52.968Z,9.37
2018-02-16T17:21:21.969Z,9.73
2018-02-16T17:23:50.302Z,4.57
2018-02-16T17:26:18.591Z,7.47
2018-02-16T17:28:46.867Z,8.07
2018-02-16T17:31:15.146Z,5.57
2018-02-16T17:33:43.524Z,6.10
2018-02-16T17:36:11.848Z,7.33
2018-02-16T17:38:40.173Z,9.10
2018-02-16T17:41:08.649Z,6.18
2018-02-16T17:43:36.985Z,9.00
2018-02-16T17:46:05.419Z,10.33
2018-02-16T17:48:33.681Z,6.87
2018-02-16T17:51:02.025Z,10.30
2018-02-16T17:53:30.327Z,10.50
2018-02-16T17:55:59.025Z,8.47
2018-02-16T17:58:27.296Z,5.67
2018-02-16T18:00:55.582Z,8.07
2018-02-16T18:03:23.854Z,9.70
2018-02-16T18:05:52.149Z,12.53
2018-02-16T18:08:20.459Z,10.50
2018-02-16T18:10:48.715Z,6.30
2018-02-16T18:13:17.018Z,6.75
2018-02-16T18:15:45.317Z,8.57
2018-02-16T18:18:13.606Z,8.20
2018-02-16T18:20:41.869Z,6.60
2018-02-16T18:23:10.184Z,9.73
2018-02-16T18:25:38.434Z,4.43
2018-02-16T18:28:06.747Z,12.13
2018-02-16T18:30:35.085Z,7.27
2018-02-16T18:33:03.366Z,3.97
2018-02-16T18:35:31.664Z,7.27
2018-02-16T18:38:00.531Z,5.33
2018-02-16T18:40:29.111Z,7.50
2018-02-16T18:42:57.396Z,5.67
2018-02-16T18:45:25.732Z,10.40
2018-02-16T18:47:53.983Z,4.18
2018-02-16T18:50:22.302Z,9.20
2018-02-16T18:52:50.619Z,8.00
2018-02-16T18:55:18.942Z,7.72
2018-02-16T18:57:47.241Z,5.03
2018-02-16T19:00:15.505Z,4.18
2018-02-16T19:02:44.434Z,12.00
2018-02-16T19:05:13.414Z,9.88
2018-02-16T19:07:42.531Z,5.20
2018-02-16T19:10:10.790Z,6.47
2018-02-16T19:12:39.080Z,7.10
2018-02-16T19:15:07.349Z,7.17
2018-02-16T19:17:35.636Z,11.87
2018-02-16T19:20:03.899Z,7.67
2018-02-16T19:22:32.254Z,9.90
2018-02-16T19:25:00.546Z,4.47
2018-02-16T19:27:28.830Z,7.60
2018-02-16T19:29:57.111Z,6.80
2018-02-16T19:32:25.571Z,6.50
2018-02-16T19:34:53.888Z,4.40
2018-02-16T19:37:22.167Z,3.53
2018-02-16T19:39:50.490Z,6.57
2018-02-16T19:42:19.690Z,5.82
2018-02-16T19:44:47.984Z,6.93
2018-02-16T19:47:16.244Z,6.00
2018-02-16T19:49:45.110Z,10.63
2018-02-16T19:52:13.411Z,10.13
2018-02-16T19:54:41.713Z,5.50
2018-02-16T19:57:10.033Z,5.60
2018-02-16T19:59:38.296Z,7.93
2018-02-16T20:02:06.597Z,9.07
2018-02-16T20:04:34.911Z,12.90
2018-02-16T20:07:03.225Z,6.80
2018-02-16T20:09:31.515Z,7.70
2018-02-16T20:11:59.826Z,8.03
2018-02-16T20:14:28.092Z,7.40
2018-02-16T20:16:56.648Z,7.13
2018-02-16T20:19:25.759Z,8.50
2018-02-16T20:21:54.053Z,7.83
2018-02-16T20:24:22.371Z,11.47
2018-02-16T20:26:50.728Z,9.73
2018-02-16T20:29:19.007Z,8.33
2018-02-16T20:31:47.289Z,11.87
2018-02-16T20:34:15.576Z,8.80
2018-02-16T20:36:44.003Z,4.33
2018-02-16T20:39:12.274Z,6.90
2018-02-16T20:41:40.552Z,10.27
2018-02-16T20:44:08.884Z,14.85
2018-02-16T20:46:37.151Z,7.87
2018-02-16T20:49:05.423Z,5.27
2018-02-16T20:51:33.688Z,7.83
2018-02-16T20:54:01.985Z,15.27
2018-02-16T20:56:30.250Z,7.20
2018-02-16T20:58:58.524Z,12.33
2018-02-16T21:01:26.879Z,9.73
2018-02-16T21:03:55.141Z,8.17
2018-02-16T21:06:23.446Z,6.23
2018-02-16T21:08:51.711Z,8.17
2018-02-16T21:11:20.670Z,7.07
2018-02-16T21:13:48.964Z,10.25
2018-02-16T21:16:17.686Z,13.63
2018-02-16T21:18:46.009Z,7.57
2018-02-16T21:21:14.337Z,11.48
2018-02-16T21:23:42.623Z,4.43
2018-02-16T21:26:10.895Z,6.67
2018-02-16T21:28:39.221Z,7.53
2018-02-16T21:31:07.541Z,6.87
2018-02-16T21:33:35.823Z,5.10
2018-02-16T21:36:04.154Z,9.00
2018-02-16T21:38:32.446Z,6.60
2018-02-16T21:41:00.748Z,8.30
2018-02-16T21:43:29.030Z,5.85
2018-02-16T21:45:57.365Z,4.80
2018-02-16T21:48:25.762Z,5.90
2018-02-16T21:50:54.056Z,4.40
2018-02-16T21:53:22.344Z,7.93
2018-02-16T21:55:50.608Z,7.70
2018-02-16T21:58:18.921Z,7.20
2018-02-16T22:00:47.435Z,5.00
2018-02-16T22:03:15.729Z,6.25
2018-02-16T22:05:44.037Z,3.87
2018-02-16T22:08:12.297Z,7.30
2018-02-16T22:10:40.584Z,11.83
2018-02-16T22:13:08.868Z,7.40
2018-02-16T22:15:37.164Z,6.80
2018-02-16T22:18:05.520Z,8.80
2018-02-16T22:20:33.784Z,6.77
2018-02-16T22:23:02.063Z,5.83
2018-02-16T22:25:30.342Z,5.27
2018-02-16T22:27:58.669Z,5.10
2018-02-16T22:30:26.939Z,6.83
2018-02-16T22:32:55.248Z,10.10
2018-02-16T22:35:23.540Z,7.60
2018-02-16T22:37:51.822Z,11.57
2018-02-16T22:40:20.099Z,9.53
2018-02-16T22:42:48.355Z,6.80
2018-02-16T22:45:16.661Z,8.88
2018-02-16T22:47:44.923Z,8.50
2018-02-16T22:50:13.211Z,8.03
2018-02-16T22:52:41.856Z,8.70
2018-02-16T22:55:10.132Z,9.85
2018-02-16T22:57:38.568Z,7.63
2018-02-16T23:00:06.834Z,8.03
2018-02-16T23:02:35.136Z,9.00
2018-02-16T23:05:03.381Z,9.97
2018-02-16T23:07:31.691Z,15.73
2018-02-16T23:10:00.010Z,6.90
2018-02-16T23:12:28.362Z,11.60
2018-02-16T23:14:56.665Z,8.10
2018-02-16T23:17:24.960Z,11.13
2018-02-16T23:19:53.231Z,12.20
2018-02-16T23:22:21.509Z,11.65
2018-02-16T23:24:49.865Z,15.70
2018-02-16T23:27:18.165Z,9.55
2018-02-16T23:29:46.444Z,6.73
2018-02-16T23:32:14.738Z,10.18
2018-02-16T23:34:43.035Z,9.23
2018-02-16T23:37:11.338Z,9.20
2018-02-16T23:39:39.647Z,9.40
2018-02-16T23:42:07.909Z,12.10
2018-02-16T23:44:36.131Z,13.70
2018-02-16T23:47:04.511Z,10.47
2018-02-16T23:49:33.198Z,10.67
2018-02-16T23:52:01.488Z,10.27
2018-02-16T23:54:29.745Z,12.40
2018-02-16T23:56:58.292Z,11.73
2018-02-16T23:59:26.564Z,9.13
